Time;durP1;ratioP1;P1;durP2;ratioP2;P2;SDS_P1;SDS_P2;PMS_P1;PMS_P2;Temp;Humidity;BMP_temperature;BMP_pressure;BME280_temperature;BME280_humidity;BME280_pressure;Samples;Min_cycle;Max_cycle;Signal;HPM_P1;HPM_P2
2021/11/07 00:03:00;;;;;;;21.67;10.77;;;6.70;72.60;;;;;;5057186;28;20044;-37
2021/11/07 00:05:04;;;;;;;23.77;11.85;;;6.70;72.60;;;;;;5056926;28;20322;-35
2021/11/07 00:07:43;;;;;;;24.23;12.93;;;6.70;72.60;;;;;;5056606;28;20352;-36
2021/11/07 00:13:01;;;;;;;21.33;11.07;;;6.60;72.60;;;;;;5056560;28;20028;-35
2021/11/07 00:15:27;;;;;;;19.50;11.07;;;6.50;72.60;;;;;;5057132;28;20029;-37
2021/11/07 00:17:55;;;;;;;21.48;10.90;;;6.40;72.70;;;;;;5056527;28;20037;-37
2021/11/07 00:20:26;;;;;;;17.35;10.80;;;6.40;72.90;;;;;;5057049;28;20083;-35
2021/11/07 00:23:09;;;;;;;19.30;11.25;;;6.40;73.10;;;;;;5056783;28;20029;-37
2021/11/07 00:28:07;;;;;;;18.77;11.15;;;6.20;73.20;;;;;;5056498;28;20078;-36
2021/11/07 00:38:01;;;;;;;20.13;11.35;;;6.10;74.00;;;;;;5056179;28;20320;-37
2021/11/07 00:43:04;;;;;;;24.45;11.00;;;6.00;73.60;;;;;;5056177;28;20325;-35
2021/11/07 00:45:41;;;;;;;16.40;10.05;;;6.00;73.80;;;;;;5056080;28;20041;-38
2021/11/07 00:50:46;;;;;;;16.65;9.70;;;5.90;74.10;;;;;;5056157;28;20044;-37
2021/11/07 00:55:49;;;;;;;18.40;9.70;;;6.00;74.30;;;;;;5055701;28;20081;-38
2021/11/07 00:58:19;;;;;;;15.60;9.80;;;6.00;74.30;;;;;;5055925;28;20037;-35
2021/11/07 01:01:04;;;;;;;26.52;8.98;;;6.00;75.00;;;;;;5055981;28;20033;-35
2021/11/07 01:03:30;;;;;;;18.25;9.55;;;5.90;75.00;;;;;;5055828;28;20059;-37
2021/11/07 01:05:56;;;;;;;15.35;9.35;;;6.00;74.50;;;;;;5056113;28;20394;-37
2021/11/07 01:08:22;;;;;;;14.68;8.85;;;6.00;74.50;;;;;;5055737;28;20468;-36
2021/11/07 01:10:48;;;;;;;17.92;9.23;;;6.00;74.60;;;;;;5056029;28;20024;-35
2021/11/07 01:13:14;;;;;;;15.98;8.32;;;6.00;74.60;;;;;;5055719;28;20040;-38
2021/11/07 01:15:39;;;;;;;16.13;8.70;;;6.00;74.60;;;;;;5056018;28;20033;-37
2021/11/07 01:18:06;;;;;;;24.85;9.70;;;6.10;74.70;;;;;;5055218;28;20325;-35
2021/11/07 01:20:33;;;;;;;14.55;9.00;;;6.10;74.60;;;;;;5056070;28;20040;-37
2021/11/07 01:25:36;;;;;;;15.32;8.65;;;6.10;74.50;;;;;;5056106;28;20337;-36
2021/11/07 01:28:04;;;;;;;15.65;9.02;;;6.20;74.50;;;;;;5055438;28;20113;-36
2021/11/07 01:30:35;;;;;;;16.10;8.95;;;6.20;74.50;;;;;;5055469;28;20045;-37
2021/11/07 01:33:04;;;;;;;;;;;6.20;74.50;;;;;;5056104;28;20021;-37
2021/11/07 01:35:49;;;;;;;16.27;8.48;;;6.30;74.40;;;;;;5055930;28;19917;-37
2021/11/07 01:38:18;;;;;;;14.85;9.20;;;6.20;74.40;;;;;;5055473;28;20029;-35
2021/11/07 01:41:05;;;;;;;16.65;9.20;;;6.20;74.40;;;;;;5055497;28;20025;-35
2021/11/07 01:43:32;;;;;;;15.23;8.82;;;6.30;74.40;;;;;;5055684;28;20321;-37
2021/11/07 01:48:48;;;;;;;16.05;9.85;;;6.30;74.30;;;;;;5055538;28;20321;-37
2021/11/07 01:51:14;;;;;;;15.88;9.75;;;6.20;74.20;;;;;;5055270;28;20031;-36
2021/11/07 01:53:40;;;;;;;16.25;9.43;;;6.20;74.20;;;;;;5055229;28;20112;-35
2021/11/07 01:56:14;;;;;;;16.17;9.02;;;6.30;74.20;;;;;;5055136;28;20047;-38
2021/11/07 01:58:41;;;;;;;17.95;9.77;;;6.20;74.60;;;;;;5055682;28;20071;-37
2021/11/07 02:01:08;;;;;;;16.88;8.73;;;6.30;74.20;;;;;;5055219;28;20033;-37
2021/11/07 02:03:35;;;;;;;16.38;9.48;;;6.20;74.10;;;;;;5055536;28;20097;-35
2021/11/07 02:06:01;;;;;;;17.48;10.07;;;6.30;74.10;;;;;;5055296;28;20040;-35
2021/11/07 02:08:28;;;;;;;14.55;8.93;;;6.30;74.10;;;;;;5055382;28;20107;-37
2021/11/07 02:10:55;;;;;;;17.00;9.50;;;6.30;74.10;;;;;;5055495;28;20017;-36
2021/11/07 02:13:23;;;;;;;16.80;9.07;;;6.30;74.10;;;;;;5054992;28;20160;-37
2021/11/07 02:15:48;;;;;;;19.73;9.65;;;6.20;74.00;;;;;;5055529;28;20356;-37
2021/11/07 02:18:17;;;;;;;16.30;9.88;;;6.20;74.00;;;;;;5055227;28;20037;-36
2021/11/07 02:20:43;;;;;;;17.10;8.90;;;6.20;74.10;;;;;;5055286;28;20493;-36
2021/11/07 02:23:13;;;;;;;15.48;9.45;;;6.20;74.10;;;;;;5054836;28;20057;-35
2021/11/07 02:25:41;;;;;;;20.55;9.65;;;6.20;74.10;;;;;;5055055;28;20025;-38
2021/11/07 02:28:08;;;;;;;18.38;9.35;;;6.20;74.20;;;;;;5054755;28;20025;-37
2021/11/07 02:30:37;;;;;;;18.33;9.48;;;6.20;74.10;;;;;;5057104;28;20033;-38
2021/11/07 02:33:03;;;;;;;16.30;10.38;;;6.20;74.20;;;;;;5058554;28;20028;-35
2021/11/07 02:35:30;;;;;;;17.65;10.48;;;6.30;74.10;;;;;;5058870;28;20032;-35
2021/11/07 02:37:57;;;;;;;17.55;10.05;;;6.20;74.10;;;;;;5040871;28;20033;-36
2021/11/07 02:40:23;;;;;;;22.92;10.00;;;6.20;74.10;;;;;;5059075;28;20043;-40
2021/11/07 02:42:49;;;;;;;22.90;10.85;;;6.20;74.20;;;;;;5057115;28;20071;-35
2021/11/07 02:45:17;;;;;;;16.58;9.45;;;6.20;74.10;;;;;;5058692;28;20057;-37
2021/11/07 02:47:45;;;;;;;22.58;9.68;;;6.20;74.20;;;;;;5058004;28;20029;-35
2021/11/07 02:50:12;;;;;;;18.05;10.43;;;6.20;74.20;;;;;;5058689;28;20059;-37
2021/11/07 02:52:38;;;;;;;18.35;10.02;;;6.20;74.20;;;;;;5057034;28;20026;-37
2021/11/07 02:55:05;;;;;;;16.50;9.10;;;6.20;74.20;;;;;;5058175;28;20388;-36
2021/11/07 02:57:32;;;;;;;14.52;9.25;;;6.20;74.30;;;;;;5057875;28;20032;-35
2021/11/07 02:59:59;;;;;;;16.58;9.13;;;6.20;74.20;;;;;;5058612;28;20490;-36
2021/11/07 03:02:27;;;;;;;18.60;10.68;;;6.20;74.30;;;;;;5057709;28;20036;-38
2021/11/07 03:04:53;;;;;;;15.30;9.23;;;6.20;74.20;;;;;;5058517;28;20037;-36
2021/11/07 03:07:20;;;;;;;20.10;9.40;;;6.10;74.20;;;;;;5057864;28;20072;-37
2021/11/07 03:09:46;;;;;;;17.77;9.35;;;6.10;74.20;;;;;;5058178;28;20084;-38
2021/11/07 03:12:12;;;;;;;17.35;9.57;;;6.10;74.40;;;;;;5057745;28;20163;-35
2021/11/07 03:14:41;;;;;;;17.85;10.02;;;6.10;74.30;;;;;;5056748;28;20108;-35
2021/11/07 03:17:09;;;;;;;21.25;10.57;;;6.10;74.20;;;;;;5057571;28;20043;-37
2021/11/07 03:19:35;;;;;;;19.70;11.13;;;6.10;73.90;;;;;;5057791;28;20183;-38
2021/11/07 03:22:08;;;;;;;23.15;11.13;;;6.10;73.70;;;;;;5057851;28;20432;-38
2021/11/07 03:24:35;;;;;;;15.93;9.77;;;6.00;73.50;;;;;;5057767;28;20044;-36
2021/11/07 03:27:08;;;;;;;21.02;10.70;;;5.90;73.40;;;;;;5057477;28;20199;-38
2021/11/07 03:29:34;;;;;;;21.85;11.45;;;5.90;73.50;;;;;;5057420;28;20031;-36
2021/11/07 03:32:08;;;;;;;18.42;10.80;;;5.80;73.60;;;;;;5057558;28;20043;-37
2021/11/07 03:34:41;;;;;;;16.83;10.30;;;5.70;73.70;;;;;;5057646;28;20033;-36
2021/11/07 03:37:09;;;;;;;16.75;10.85;;;5.70;73.80;;;;;;5057426;28;20326;-34
2021/11/07 03:39:36;;;;;;;20.27;11.68;;;5.60;73.90;;;;;;5056107;28;20490;-38
2021/11/07 03:42:10;;;;;;;19.40;11.05;;;5.50;74.10;;;;;;5056443;28;20033;-36
2021/11/07 03:44:36;;;;;;;21.92;11.00;;;5.40;74.20;;;;;;5057673;28;20037;-35
2021/11/07 03:47:03;;;;;;;18.83;11.13;;;5.40;74.40;;;;;;5056999;28;20033;-35
2021/11/07 03:49:29;;;;;;;19.13;10.93;;;5.30;74.50;;;;;;5057233;28;20029;-35
2021/11/07 03:51:55;;;;;;;18.58;11.30;;;5.20;74.70;;;;;;5057235;28;20370;-35
2021/11/07 03:54:22;;;;;;;22.08;11.27;;;5.20;74.80;;;;;;5057009;28;20045;-37
2021/11/07 03:56:49;;;;;;;16.85;10.55;;;5.10;74.90;;;;;;5056983;28;20120;-37
2021/11/07 03:59:15;;;;;;;26.75;13.63;;;5.10;75.10;;;;;;5057401;28;20083;-35
2021/11/07 04:01:41;;;;;;;21.08;12.88;;;5.10;75.30;;;;;;5055603;28;20037;-35
2021/11/07 04:04:08;;;;;;;19.77;10.95;;;5.00;75.30;;;;;;5057173;28;20043;-34
2021/11/07 04:06:36;;;;;;;19.63;11.60;;;5.00;75.40;;;;;;5056633;28;20325;-37
2021/11/07 04:09:04;;;;;;;21.20;11.73;;;5.00;75.50;;;;;;5057229;28;20033;-36
2021/11/07 04:11:30;;;;;;;22.23;12.07;;;4.90;75.60;;;;;;5056585;28;20163;-36
2021/11/07 04:13:56;;;;;;;19.95;11.43;;;4.90;75.70;;;;;;5056719;28;20029;-35
2021/11/07 04:16:22;;;;;;;23.73;10.80;;;4.90;75.80;;;;;;5056438;28;20104;-34
2021/11/07 04:18:48;;;;;;;18.38;11.52;;;4.90;76.00;;;;;;5056999;28;20120;-36
2021/11/07 04:21:14;;;;;;;21.63;12.15;;;4.80;76.10;;;;;;5056275;28;20432;-35
2021/11/07 04:23:40;;;;;;;27.30;13.02;;;4.80;76.20;;;;;;5056476;28;20055;-37
2021/11/07 04:26:06;;;;;;;21.73;12.20;;;4.80;76.40;;;;;;5056459;28;20332;-34
2021/11/07 04:28:33;;;;;;;18.85;12.18;;;4.80;76.60;;;;;;5056494;28;20309;-35
2021/11/07 04:30:58;;;;;;;29.27;14.00;;;4.80;76.60;;;;;;5056710;28;20021;-36
2021/11/07 04:33:25;;;;;;;29.00;14.63;;;4.80;76.70;;;;;;5055733;28;20489;-35
2021/11/07 04:35:51;;;;;;;29.08;13.38;;;4.80;76.70;;;;;;5056503;28;20035;-34
2021/11/07 04:38:17;;;;;;;21.58;11.98;;;4.80;76.80;;;;;;5056451;28;20131;-35
2021/11/07 04:40:44;;;;;;;23.65;12.93;;;4.80;76.90;;;;;;5056291;28;20112;-37
2021/11/07 04:43:10;;;;;;;28.73;15.35;;;4.80;77.00;;;;;;5055866;28;20467;-40
2021/11/07 04:45:36;;;;;;;26.17;14.32;;;4.80;76.90;;;;;;5056077;28;20086;-37
2021/11/07 04:48:03;;;;;;;30.35;16.38;;;4.80;77.00;;;;;;5055769;28;20044;-35
2021/11/07 04:50:29;;;;;;;26.48;13.60;;;4.80;77.00;;;;;;5056522;28;20040;-36
2021/11/07 04:52:55;;;;;;;25.23;12.93;;;4.80;77.00;;;;;;5055334;28;20029;-36
2021/11/07 04:55:20;;;;;;;27.42;12.85;;;4.80;77.10;;;;;;5055633;28;20140;-36
2021/11/07 04:57:46;;;;;;;21.33;12.25;;;4.80;77.20;;;;;;5054862;28;20409;-35
2021/11/07 05:00:21;;;;;;;22.35;12.77;;;4.80;77.30;;;;;;5056323;28;20086;-37
2021/11/07 05:02:48;;;;;;;27.23;14.43;;;4.80;77.20;;;;;;5055984;28;20036;-37
2021/11/07 05:05:14;;;;;;;28.42;14.63;;;4.80;77.20;;;;;;5056206;28;20039;-35
2021/11/07 05:07:40;;;;;;;27.40;14.10;;;4.80;77.30;;;;;;5055604;28;20056;-37
2021/11/07 05:10:06;;;;;;;25.00;14.05;;;4.80;77.40;;;;;;5056208;28;20033;-35
2021/11/07 05:12:32;;;;;;;25.85;13.30;;;4.80;77.50;;;;;;5055796;28;20033;-35
2021/11/07 05:14:58;;;;;;;25.65;14.30;;;4.80;77.50;;;;;;5055688;28;20029;-37
2021/11/07 05:17:24;;;;;;;25.15;14.20;;;4.80;77.50;;;;;;5055279;28;20413;-38
2021/11/07 05:19:50;;;;;;;38.97;20.33;;;4.80;77.50;;;;;;5055711;28;20048;-36
2021/11/07 05:22:16;;;;;;;28.17;13.75;;;4.80;77.50;;;;;;5055198;28;20025;-35
2021/11/07 05:24:41;;;;;;;22.67;13.20;;;4.80;77.60;;;;;;5055480;28;20159;-36
2021/11/07 05:27:07;;;;;;;23.80;13.00;;;4.80;77.60;;;;;;5055223;28;20059;-34
2021/11/07 05:29:33;;;;;;;25.60;12.65;;;4.80;77.50;;;;;;5055788;28;20044;-37
2021/11/07 05:32:00;;;;;;;24.67;12.93;;;4.80;77.50;;;;;;5055278;28;20414;-35
2021/11/07 05:34:27;;;;;;;27.52;13.65;;;4.80;77.60;;;;;;5055870;28;20431;-36
2021/11/07 05:36:53;;;;;;;27.63;13.43;;;4.90;77.60;;;;;;5055173;28;20021;-34
2021/11/07 05:39:20;;;;;;;19.73;12.32;;;4.90;77.60;;;;;;5055873;28;20029;-34
2021/11/07 05:41:46;;;;;;;25.17;13.23;;;4.90;77.60;;;;;;5055425;28;20029;-36
2021/11/07 05:44:12;;;;;;;22.02;12.20;;;4.90;77.70;;;;;;5055622;28;20041;-34
2021/11/07 05:46:38;;;;;;;28.27;12.88;;;4.90;77.80;;;;;;5055004;28;20028;-36
2021/11/07 05:49:04;;;;;;;25.27;12.68;;;4.90;77.80;;;;;;5055415;28;20033;-34
2021/11/07 05:51:30;;;;;;;24.42;13.65;;;5.00;77.80;;;;;;5055097;28;20036;-34
2021/11/07 05:53:56;;;;;;;24.77;13.80;;;5.00;77.80;;;;;;5055532;28;20040;-34
2021/11/07 05:56:22;;;;;;;25.92;13.57;;;5.00;77.80;;;;;;5054819;28;20510;-36
2021/11/07 05:58:48;;;;;;;34.60;15.07;;;5.10;77.80;;;;;;5055567;28;20040;-36
2021/11/07 06:01:13;;;;;;;25.50;15.30;;;5.20;77.90;;;;;;5054901;28;20317;-34
2021/11/07 06:03:39;;;;;;;26.90;14.32;;;5.20;77.80;;;;;;5055307;28;20210;-34
2021/11/07 06:06:05;;;;;;;25.02;14.32;;;5.20;77.50;;;;;;5058423;28;20025;-34
2021/11/07 06:08:30;;;;;;;28.73;16.08;;;5.30;77.50;;;;;;5059057;28;20041;-35
2021/11/07 06:10:57;;;;;;;25.77;15.20;;;5.30;77.60;;;;;;5058088;28;20033;-34
2021/11/07 06:13:24;;;;;;;29.95;15.65;;;5.40;77.60;;;;;;5058667;28;20025;-37
2021/11/07 06:15:50;;;;;;;33.08;15.65;;;5.40;77.50;;;;;;5058885;28;20425;-35
2021/11/07 06:18:16;;;;;;;31.63;15.88;;;5.40;77.50;;;;;;5058741;28;20075;-34
2021/11/07 06:20:42;;;;;;;25.45;14.82;;;5.50;77.60;;;;;;5058589;28;20060;-34
2021/11/07 06:23:09;;;;;;;30.08;14.70;;;5.50;77.50;;;;;;5058561;28;20087;-37
2021/11/07 06:25:36;;;;;;;33.95;15.52;;;5.50;77.50;;;;;;5058561;28;20037;-37
2021/11/07 06:28:04;;;;;;;33.42;16.38;;;5.60;77.60;;;;;;5046382;28;20030;-37
2021/11/07 06:30:30;;;;;;;26.70;15.57;;;5.60;77.60;;;;;;5040452;28;20124;-35
2021/11/07 06:32:55;;;;;;;32.80;16.10;;;5.70;77.70;;;;;;5058235;28;20053;-37
2021/11/07 06:35:21;;;;;;;31.85;16.33;;;5.70;77.70;;;;;;5058585;28;20091;-35
2021/11/07 06:37:47;;;;;;;28.65;14.70;;;5.80;77.80;;;;;;5058185;28;20036;-37
2021/11/07 06:40:13;;;;;;;28.35;14.88;;;5.90;77.80;;;;;;5058695;28;20049;-35
2021/11/07 06:42:40;;;;;;;29.73;15.77;;;5.90;77.80;;;;;;5058317;28;20424;-36
2021/11/07 06:45:06;;;;;;;29.35;17.02;;;6.00;77.60;;;;;;5058441;28;20029;-37
2021/11/07 06:47:32;;;;;;;29.17;17.42;;;6.10;77.60;;;;;;5058213;28;20041;-38
2021/11/07 06:49:58;;;;;;;29.38;16.48;;;6.10;77.50;;;;;;5058393;28;20033;-37
2021/11/07 06:52:25;;;;;;;39.63;17.58;;;6.20;77.40;;;;;;5058150;28;20037;-35
2021/11/07 06:54:52;;;;;;;29.65;17.70;;;6.20;77.40;;;;;;5057696;28;20057;-35
2021/11/07 06:57:18;;;;;;;31.42;17.35;;;6.30;77.60;;;;;;5057894;28;20064;-36
2021/11/07 06:59:44;;;;;;;28.48;16.02;;;6.40;77.60;;;;;;5058097;28;20072;-35
2021/11/07 07:02:10;;;;;;;33.00;16.23;;;6.50;77.60;;;;;;5057893;28;20044;-35
2021/11/07 07:04:36;;;;;;;41.58;18.15;;;6.60;77.50;;;;;;5058098;28;20045;-36
2021/11/07 07:07:03;;;;;;;30.90;16.98;;;6.60;77.40;;;;;;5057604;28;20064;-36
2021/11/07 07:09:32;;;;;;;29.50;17.75;;;6.70;77.40;;;;;;5058369;28;20037;-37
2021/11/07 07:12:10;;;;;;;34.83;18.35;;;6.70;77.40;;;;;;5057868;28;20025;-37
2021/11/07 07:17:27;;;;;;;28.30;17.13;;;6.90;77.30;;;;;;5056684;28;20044;-37
2021/11/07 07:33:31;;;;;;;27.50;17.02;;;7.40;76.90;;;;;;5056763;28;20436;-35
2021/11/07 07:35:45;;;;;;;30.90;14.98;;;7.50;76.80;;;;;;5056093;28;20044;-35
2021/11/07 07:38:10;;;;;;;46.25;19.63;;;7.60;76.60;;;;;;5057197;28;20025;-37
2021/11/07 07:40:36;;;;;;;26.98;15.40;;;7.70;76.60;;;;;;5056300;28;20374;-35
2021/11/07 07:43:02;;;;;;;27.13;15.73;;;7.80;76.40;;;;;;5056448;28;20032;-37
2021/11/07 07:45:29;;;;;;;24.92;14.98;;;7.90;76.20;;;;;;5055990;28;20041;-36
2021/11/07 07:47:56;;;;;;;34.28;15.57;;;8.00;76.10;;;;;;5057157;28;20202;-36
2021/11/07 07:50:22;;;;;;;26.73;14.43;;;8.10;76.00;;;;;;5057733;28;20326;-35
2021/11/07 07:52:49;;;;;;;27.13;15.05;;;8.20;75.90;;;;;;5056832;28;20025;-34
2021/11/07 07:55:16;;;;;;;26.17;15.43;;;8.30;75.60;;;;;;5056753;28;20052;-36
2021/11/07 07:57:45;;;;;;;36.75;16.60;;;8.30;75.40;;;;;;5056645;28;20325;-36
2021/11/07 08:00:12;;;;;;;30.73;16.33;;;8.40;75.40;;;;;;5057249;28;20037;-37
2021/11/07 08:02:38;;;;;;;36.28;19.20;;;8.60;75.40;;;;;;5056511;28;20029;-37
2021/11/07 08:05:06;;;;;;;29.13;17.23;;;8.60;75.00;;;;;;5057321;28;20033;-38
2021/11/07 08:07:32;;;;;;;28.85;15.90;;;8.70;74.80;;;;;;5056437;28;20017;-36
2021/11/07 08:09:58;;;;;;;29.90;15.93;;;8.80;74.40;;;;;;5057093;28;20120;-35
2021/11/07 08:12:24;;;;;;;30.98;17.92;;;8.90;74.10;;;;;;5056541;28;20056;-35
2021/11/07 08:14:51;;;;;;;31.77;18.08;;;9.00;73.90;;;;;;5055449;28;20392;-35
2021/11/07 08:17:17;;;;;;;24.52;15.02;;;9.00;73.90;;;;;;5056308;28;20490;-37
2021/11/07 08:19:43;;;;;;;33.97;19.27;;;9.10;73.90;;;;;;5056993;28;20029;-35
2021/11/07 08:22:08;;;;;;;43.22;21.10;;;9.20;73.70;;;;;;5056232;28;20326;-37
2021/11/07 08:24:36;;;;;;;27.15;16.27;;;9.30;73.50;;;;;;5056671;28;20071;-37
2021/11/07 08:27:04;;;;;;;22.92;15.18;;;9.30;73.70;;;;;;5056117;28;20100;-37
2021/11/07 08:29:30;;;;;;;25.65;14.88;;;9.40;72.90;;;;;;5056879;28;20079;-35
2021/11/07 08:31:58;;;;;;;29.75;15.60;;;9.40;73.00;;;;;;5056269;28;20020;-36
2021/11/07 08:34:27;;;;;;;23.85;14.77;;;9.50;72.80;;;;;;5056255;28;20055;-36
2021/11/07 08:39:27;;;;;;;24.48;13.32;;;9.60;72.30;;;;;;5056697;28;20092;-37
2021/11/07 08:42:10;;;;;;;22.60;15.38;;;9.60;72.30;;;;;;5056180;28;20140;-34
2021/11/07 09:07:15;;;;;;;22.33;11.82;;;10.20;71.50;;;;;;5050839;28;20037;-39
2021/11/07 09:09:37;;;;;;;57.00;15.25;;;10.30;71.20;;;;;;5055889;28;20053;-34
2021/11/07 09:12:04;;;;;;;26.15;13.43;;;10.40;71.20;;;;;;5055852;28;20337;-35
2021/11/07 09:14:37;;;;;;;25.77;12.27;;;10.40;70.90;;;;;;5055771;28;20401;-36
2021/11/07 09:17:06;;;;;;;25.02;12.15;;;10.50;70.70;;;;;;5055838;28;20112;-36
2021/11/07 09:19:34;;;;;;;25.10;12.80;;;10.60;70.90;;;;;;5055732;28;20033;-36
2021/11/07 09:22:10;;;;;;;27.92;12.98;;;10.60;70.40;;;;;;5055543;28;20337;-36
2021/11/07 09:24:51;;;;;;;34.33;12.48;;;10.70;70.20;;;;;;5055732;28;20044;-36
2021/11/07 09:27:37;;;;;;;22.55;12.23;;;10.80;70.10;;;;;;5055319;28;20036;-38
2021/11/07 09:40:39;;;;;;;18.35;10.93;;;11.10;68.30;;;;;;5058138;28;20087;-35
2021/11/07 09:50:32;;;;;;;18.77;10.57;;;11.30;67.70;;;;;;5059390;28;20037;-36
2021/11/07 09:52:58;;;;;;;17.27;10.45;;;11.40;67.50;;;;;;5058970;28;20059;-36
2021/11/07 09:55:26;;;;;;;30.17;11.07;;;11.50;67.20;;;;;;5058967;28;20110;-37
2021/11/07 09:57:54;;;;;;;18.73;10.07;;;11.50;66.80;;;;;;5059260;28;20037;-35
2021/11/07 10:00:25;;;;;;;17.00;9.95;;;11.50;66.30;;;;;;5059726;28;20167;-36
2021/11/07 10:02:51;;;;;;;16.35;10.57;;;11.60;66.00;;;;;;5059202;28;20029;-37
2021/11/07 10:05:18;;;;;;;20.20;11.43;;;11.60;65.80;;;;;;5059765;28;20374;-38
2021/11/07 10:07:45;;;;;;;16.08;9.52;;;11.60;65.90;;;;;;5058694;28;20025;-37
2021/11/07 10:10:24;;;;;;;18.55;10.25;;;11.70;65.70;;;;;;5059258;28;20117;-35
2021/11/07 10:12:56;;;;;;;16.58;9.82;;;11.70;65.40;;;;;;5059132;28;20079;-35
2021/11/07 10:15:41;;;;;;;19.08;9.75;;;11.80;65.50;;;;;;5058746;28;20029;-38
2021/11/07 10:18:09;;;;;;;30.15;16.85;;;11.80;65.40;;;;;;5058401;28;20430;-37
2021/11/07 10:20:44;;;;;;;23.08;9.88;;;11.90;65.60;;;;;;5058969;28;20061;-36
2021/11/07 10:23:20;;;;;;;17.70;9.18;;;11.90;65.40;;;;;;5058570;28;20025;-36
2021/11/07 10:25:56;;;;;;;18.00;8.45;;;12.00;65.10;;;;;;5058491;28;20048;-35
2021/11/07 10:28:29;;;;;;;13.75;8.07;;;12.00;64.50;;;;;;5058719;28;20039;-36
2021/11/07 10:31:07;;;;;;;14.10;7.55;;;12.00;64.30;;;;;;5058810;28;20356;-35
2021/11/07 10:33:49;;;;;;;14.75;7.72;;;12.10;64.10;;;;;;5058863;28;20429;-36
2021/11/07 10:52:26;;;;;;;10.55;5.85;;;12.50;62.40;;;;;;5057938;28;20443;-37
2021/11/07 10:54:52;;;;;;;10.00;5.60;;;12.60;62.00;;;;;;5057986;28;20144;-37
2021/11/07 10:57:26;;;;;;;17.13;6.47;;;12.60;61.90;;;;;;5057845;28;20043;-37
2021/11/07 11:00:13;;;;;;;12.95;5.45;;;12.70;61.20;;;;;;5058279;28;20103;-46
2021/11/07 11:02:54;;;;;;;16.27;6.03;;;12.70;60.90;;;;;;5057840;28;20119;-38
2021/11/07 11:05:37;;;;;;;10.82;5.85;;;12.80;60.70;;;;;;5058458;28;20413;-40
2021/11/07 11:08:16;;;;;;;16.95;6.07;;;12.90;60.10;;;;;;5057947;28;20036;-36
2021/11/07 11:13:35;;;;;;;14.25;6.10;;;13.00;59.90;;;;;;5057696;28;20044;-38
2021/11/07 11:24:55;;;;;;;15.77;6.88;;;12.90;60.10;;;;;;5057959;28;20086;-35
2021/11/07 11:27:31;;;;;;;11.60;6.35;;;12.90;60.20;;;;;;5057348;28;20171;-38
2021/11/07 11:30:09;;;;;;;11.57;6.07;;;12.80;60.40;;;;;;5057435;28;20067;-38
2021/11/07 11:37:53;;;;;;;13.85;7.35;;;12.90;60.40;;;;;;5057382;28;20035;-36
2021/11/07 11:45:46;;;;;;;12.18;6.40;;;12.90;60.30;;;;;;5057621;28;20082;-37
2021/11/07 11:53:55;;;;;;;10.15;5.95;;;12.80;60.30;;;;;;5057022;28;20052;-38
2021/11/07 11:56:35;;;;;;;14.20;6.15;;;12.80;60.10;;;;;;5056345;28;20076;-38
2021/11/07 11:59:05;;;;;;;12.23;6.78;;;12.80;59.80;;;;;;5057242;28;20137;-38
2021/11/07 12:01:48;;;;;;;11.77;5.85;;;12.80;60.20;;;;;;5056364;28;20037;-39
2021/11/07 12:04:20;;;;;;;20.42;8.50;;;12.80;60.20;;;;;;5056656;28;20045;-39
2021/11/07 12:06:51;;;;;;;12.02;7.32;;;12.80;60.30;;;;;;5056738;28;20025;-39
2021/11/07 12:09:23;;;;;;;16.02;8.05;;;12.80;60.50;;;;;;5056591;28;20033;-36
2021/11/07 12:11:59;;;;;;;11.75;7.53;;;12.70;60.30;;;;;;5056098;28;20417;-37
2021/11/07 12:14:37;;;;;;;19.33;7.53;;;12.70;60.30;;;;;;5056582;28;20035;-37
2021/11/07 12:17:08;;;;;;;10.48;6.40;;;12.70;60.50;;;;;;5056423;28;20029;-38
2021/11/07 12:19:42;;;;;;;10.77;6.43;;;12.60;60.40;;;;;;5056422;28;20040;-36
2021/11/07 12:22:25;;;;;;;11.32;6.45;;;12.50;60.50;;;;;;5056371;28;20047;-36
2021/11/07 12:24:51;;;;;;;16.10;6.93;;;12.50;60.60;;;;;;5056490;28;20029;-36
2021/11/07 12:27:24;;;;;;;13.43;6.15;;;12.40;61.20;;;;;;5055847;28;20358;-36
2021/11/07 12:29:56;;;;;;;12.68;6.88;;;12.40;61.40;;;;;;5056540;28;20044;-38
2021/11/07 12:32:24;;;;;;;10.05;6.88;;;12.40;61.10;;;;;;5055842;28;20498;-36
2021/11/07 12:40:57;;;;;;;11.98;6.45;;;12.40;60.80;;;;;;5056421;28;20071;-37
2021/11/07 12:43:37;;;;;;;19.67;8.48;;;12.40;60.90;;;;;;5055964;28;20044;-37
2021/11/07 12:49:16;;;;;;;10.23;6.32;;;12.40;60.90;;;;;;5056070;28;20036;-36
2021/11/07 12:51:52;;;;;;;10.90;6.70;;;12.40;60.70;;;;;;5055609;28;20029;-38
2021/11/07 12:54:24;;;;;;;16.60;8.88;;;12.40;60.70;;;;;;5055891;28;20025;-38
2021/11/07 12:57:22;;;;;;;10.40;6.65;;;12.40;60.70;;;;;;5055626;28;20153;-36
2021/11/07 12:59:53;;;;;;;15.13;6.97;;;12.30;60.70;;;;;;5054454;28;20056;-38
2021/11/07 13:02:24;;;;;;;16.65;7.28;;;12.30;61.40;;;;;;5055489;28;20029;-38
2021/11/07 13:05:18;;;;;;;14.80;6.70;;;12.30;61.20;;;;;;5056157;28;20307;-36
2021/11/07 13:07:52;;;;;;;21.98;9.63;;;12.20;61.20;;;;;;5055450;28;20029;-36
2021/11/07 13:10:28;;;;;;;20.83;10.52;;;12.20;61.40;;;;;;5056189;28;20096;-36
2021/11/07 13:13:01;;;;;;;19.23;10.52;;;12.20;61.60;;;;;;5055866;28;20029;-38
2021/11/07 13:15:38;;;;;;;19.05;10.20;;;12.10;61.70;;;;;;5055013;28;20037;-36
2021/11/07 13:21:25;;;;;;;24.30;10.82;;;12.00;61.90;;;;;;5055947;28;20048;-35
2021/11/07 13:34:59;;;;;;;27.80;9.35;;;11.90;62.90;;;;;;5052771;28;20409;-38
2021/11/07 13:37:30;;;;;;;13.20;7.35;;;11.80;63.10;;;;;;5055097;28;20040;-36
2021/11/07 13:40:07;;;;;;;;;;;11.80;63.40;;;;;;5056032;28;20029;-35
2021/11/07 13:42:36;;;;;;;14.80;7.65;;;11.80;63.40;;;;;;5055430;28;19904;-37
2021/11/07 13:45:04;;;;;;;16.00;7.57;;;11.70;63.50;;;;;;5055596;28;20084;-39
2021/11/07 13:47:43;;;;;;;13.05;7.55;;;11.70;63.60;;;;;;5054877;28;20029;-37
2021/11/07 13:50:14;;;;;;;14.88;7.43;;;11.60;63.80;;;;;;5055489;28;20029;-38
2021/11/07 13:52:43;;;;;;;17.42;8.00;;;11.60;63.90;;;;;;5055023;28;20033;-40
2021/11/07 13:55:12;;;;;;;14.70;6.93;;;11.60;64.10;;;;;;5055226;28;20384;-39
2021/11/07 13:57:38;;;;;;;14.57;7.75;;;11.60;64.40;;;;;;5054774;28;20028;-38
2021/11/07 14:00:08;;;;;;;19.75;8.60;;;11.50;64.40;;;;;;5054230;28;20033;-37
2021/11/07 14:02:34;;;;;;;14.43;8.13;;;11.50;64.60;;;;;;5055274;28;20033;-38
2021/11/07 14:05:00;;;;;;;13.07;7.93;;;11.40;64.70;;;;;;5055459;28;20452;-36
2021/11/07 14:07:33;;;;;;;13.75;8.07;;;11.40;64.80;;;;;;5054000;28;20078;-36
2021/11/07 14:10:07;;;;;;;33.75;12.02;;;11.40;65.00;;;;;;5055196;28;20040;-35
2021/11/07 14:12:36;;;;;;;20.80;9.38;;;11.40;65.20;;;;;;5054854;28;20033;-38
2021/11/07 14:15:07;;;;;;;22.73;9.95;;;11.40;65.30;;;;;;5055339;28;20037;-35
2021/11/07 14:17:33;;;;;;;13.57;8.38;;;11.40;65.50;;;;;;5055121;28;20303;-35
2021/11/07 14:19:59;;;;;;;19.13;9.30;;;11.30;65.40;;;;;;5054124;28;20330;-36
2021/11/07 14:22:25;;;;;;;16.83;9.30;;;11.30;65.50;;;;;;5054744;28;20041;-36
2021/11/07 14:24:51;;;;;;;18.10;9.63;;;11.30;65.40;;;;;;5053800;28;20033;-34
2021/11/07 14:27:29;;;;;;;21.10;10.32;;;11.30;65.50;;;;;;5057884;28;20029;-37
2021/11/07 14:30:02;;;;;;;25.15;10.25;;;11.30;65.60;;;;;;5058591;28;20463;-38
2021/11/07 14:35:09;;;;;;;22.33;10.00;;;11.30;65.80;;;;;;5058501;28;20051;-38
2021/11/07 14:38:00;;;;;;;20.08;10.38;;;11.20;65.80;;;;;;5058014;28;20349;-36
2021/11/07 14:40:48;;;;;;;17.35;10.02;;;11.20;65.90;;;;;;5058408;28;20033;-38
2021/11/07 14:53:52;;;;;;;18.70;11.05;;;11.00;66.60;;;;;;5057722;28;20052;-38
2021/11/07 14:56:24;;;;;;;30.55;11.93;;;11.00;66.60;;;;;;5057425;28;20041;-38
2021/11/07 14:59:04;;;;;;;26.92;12.45;;;11.00;66.70;;;;;;5057762;28;20425;-36
2021/11/07 15:01:36;;;;;;;19.00;11.07;;;11.00;66.80;;;;;;5057321;28;20057;-36
2021/11/07 15:04:10;;;;;;;23.95;11.73;;;11.00;67.00;;;;;;5057776;28;20527;-37
2021/11/07 15:06:40;;;;;;;29.98;11.55;;;10.90;67.10;;;;;;5057397;28;20028;-36
2021/11/07 15:09:19;;;;;;;17.63;10.75;;;10.90;67.10;;;;;;5057732;28;20040;-36
2021/11/07 15:12:10;;;;;;;20.73;10.77;;;10.90;67.20;;;;;;5057252;28;20040;-37
2021/11/07 15:17:31;;;;;;;26.25;11.48;;;10.90;67.30;;;;;;5057512;28;20039;-38
2021/11/07 15:20:21;;;;;;;22.55;10.98;;;10.90;67.40;;;;;;5057936;28;20029;-36
2021/11/07 15:22:50;;;;;;;26.15;12.88;;;10.90;67.40;;;;;;5057017;28;20048;-37
2021/11/07 15:25:18;;;;;;;21.30;11.82;;;10.90;67.50;;;;;;5057633;28;20029;-38
2021/11/07 15:27:54;;;;;;;24.60;12.00;;;10.80;67.60;;;;;;5057206;28;20036;-38
2021/11/07 15:30:20;;;;;;;23.70;12.45;;;10.80;67.60;;;;;;5057144;28;20033;-39
2021/11/07 15:32:46;;;;;;;23.77;13.05;;;10.80;67.70;;;;;;5055477;28;20116;-39
2021/11/07 15:35:16;;;;;;;21.55;13.20;;;10.80;67.80;;;;;;5057563;28;20029;-37
2021/11/07 15:37:42;;;;;;;19.10;12.13;;;10.80;68.10;;;;;;5056340;28;20029;-36
2021/11/07 15:40:09;;;;;;;24.13;11.82;;;10.80;68.40;;;;;;5057719;28;20029;-38